Flight Track Log - Related Links

Times and Time Zones

All times are in EDT time to prevent confusion due to time zone crossing. See the LBQ870 flight status page for this flight to view local times or setup timezone preferences in your user account.

Time Position Orientation Groundspeed Altitude Reporting Facility
EDT Latitude Longitude Course Direction KTS MPH feet Rate Location/Type
Tue 07:31:00 AM 38.9000 -77.5667 237° Southwest 127 146 4,200  Level Potomac TRACON
Tue 07:32:00 AM 38.8833 -77.6167 247° West 138 159 5,000 450 Climbing Potomac TRACON
Tue 07:33:00 AM 38.8500 -77.6667 229° Southwest 182 209 5,100 400 Climbing Potomac TRACON
Tue 07:34:00 AM 38.8333 -77.7167 247° West 173 199 5,800 650 Climbing Potomac TRACON
Tue 07:35:00 AM 38.7553 -77.7374 230° Southwest  Level Estimated
Tue 07:35:00 AM 38.8000 -77.7500 218° Southwest 167 192 6,400  Level Potomac TRACON
Tue 07:36:00 AM 38.7667 -77.8000 229° Southwest 161 185 7,000 550 Climbing Potomac TRACON
Tue 07:37:00 AM 38.7333 -77.8500 229° Southwest 164 189 7,500 500 Climbing Potomac TRACON
Tue 07:38:00 AM 38.7000 -77.8833 218° Southwest 163 188 8,000 300 Climbing Potomac TRACON
Tue 07:39:00 AM 38.6667 -77.9333 230° Southwest 178 205 8,100 50 Climbing Potomac TRACON
Tue 07:40:00 AM 38.6333 -77.9833 230° Southwest 194 223 8,100  Level Potomac TRACON
Tue 07:40:54 AM 38.6000 -78.0333 230° Southwest 194 223 8,100  Level Potomac TRACON
Tue 07:41:54 AM 38.5667 -78.0833 230° Southwest 200 230 8,100  Level Potomac TRACON
Tue 07:42:54 AM 38.5333 -78.1333 230° Southwest 197 227 8,100  Level Potomac TRACON
Tue 07:43:54 AM 38.4833 -78.1833 218° Southwest 198 228 8,100  Level Potomac TRACON
Tue 07:44:55 AM 38.4500 -78.2333 230° Southwest 201 231 8,100  Level Potomac TRACON
Tue 07:45:55 AM 38.4167 -78.2833 230° Southwest 197 227 8,100 -50 Level Potomac TRACON
Tue 07:46:55 AM 38.3833 -78.3333 230° Southwest 196 226 8,000 -50 Descending Potomac TRACON
Tue 07:47:55 AM 38.3500 -78.3833 230° Southwest 197 227 8,000 50 Level Potomac TRACON
Tue 07:48:55 AM 38.3000 -78.4500 226° Southwest 198 228 8,100 50 Climbing Potomac TRACON
Tue 07:49:55 AM 38.2667 -78.5000 230° Southwest 200 230 8,100 -50 Level Potomac TRACON
Tue 07:50:55 AM 38.2333 -78.5500 230° Southwest 200 230 8,000  Descending Potomac TRACON
Tue 07:51:55 AM 38.2000 -78.6000 230° Southwest 200 230 8,100  Climbing Potomac TRACON
Tue 07:52:55 AM 38.1500 -78.6500 218° Southwest 201 231 8,000 -50 Descending Potomac TRACON
Tue 07:53:55 AM 38.1167 -78.7000 230° Southwest 198 228 8,000  Level Potomac TRACON
Tue 07:54:55 AM 38.0833 -78.7500 230° Southwest 199 229 8,000 50 Level Potomac TRACON
Tue 07:55:55 AM 38.0500 -78.8000 230° Southwest 197 227 8,100 50 Climbing Potomac TRACON
Tue 07:56:55 AM 38.0167 -78.8500 230° Southwest 194 223 8,100  Level Potomac TRACON
Tue 07:57:55 AM 37.9667 -78.9000 218° Southwest 198 228 8,100  Level Potomac TRACON
Tue 07:58:55 AM 37.9333 -78.9500 230° Southwest 197 227 8,100  Level Potomac TRACON
Tue 08:00:00 AM 37.8878 -78.9881 213° Southwest  Level FlightAware Approximate
Tue 08:07:00 AM 37.6180 -79.2819 229° Southwest  Level FlightAware Approximate
Tue 08:08:00 AM 37.5846 -79.3295 229° Southwest  Level FlightAware Approximate
Tue 08:09:00 AM 37.5512 -79.3771 229° Southwest  Level FlightAware Approximate
Tue 08:10:00 AM 37.5178 -79.4246 228° Southwest  Level FlightAware Approximate
Tue 08:11:00 AM 37.4840 -79.4716 227° Southwest  Level FlightAware Approximate
Tue 08:12:00 AM 37.4495 -79.5178 227° Southwest  Level FlightAware Approximate
Tue 08:13:00 AM 37.4150 -79.5640 227° Southwest  Level FlightAware Approximate
Tue 08:14:00 AM 37.3805 -79.6102 227° Southwest  Level FlightAware Approximate
Tue 08:15:00 AM 37.3460 -79.6563 227° Southwest  Level FlightAware Approximate
Tue 08:16:00 AM 37.3114 -79.7024 227° Southwest  Level FlightAware Approximate
Tue 08:17:00 AM 37.2769 -79.7484 227° Southwest  Level FlightAware Approximate
Tue 08:18:00 AM 37.2423 -79.7944 227° Southwest  Level FlightAware Approximate
Tue 08:19:00 AM 37.2077 -79.8403 227° Southwest  Level FlightAware Approximate
Tue 08:20:00 AM 37.1731 -79.8862 227° Southwest  Level FlightAware Approximate
Tue 08:21:00 AM 37.1384 -79.9321 227° Southwest  Level FlightAware Approximate
Tue 08:22:00 AM 37.1038 -79.9779 227° Southwest  Level FlightAware Approximate
Tue 08:23:00 AM 37.0691 -80.0237 227° Southwest  Level FlightAware Approximate
Tue 08:24:00 AM 37.0344 -80.0694 226° Southwest  Level FlightAware Approximate
Tue 08:24:45 AM 36.9775 -80.2350 250° West 198 228 8,100  Level Atlanta Center
Tue 08:25:00 AM 36.9997 -80.1151 226° Southwest  Level FlightAware Approximate
Tue 08:25:45 AM 36.9411 -80.2783 224° Southwest 198 228 8,100  Level Atlanta Center
Tue 08:26:00 AM 36.9650 -80.1608 226° Southwest  Level FlightAware Approximate
Tue 08:26:45 AM 36.9053 -80.3294 229° Southwest 198 228 8,100  Level Atlanta Center
Tue 08:27:00 AM 36.9303 -80.2064 226° Southwest  Level FlightAware Approximate
Tue 08:27:45 AM 36.8669 -80.3778 225° Southwest 198 228 8,100  Level Atlanta Center
Tue 08:28:00 AM 36.9130 -80.2654 250° West  Level FlightAware Approximate
Tue 08:28:45 AM 36.8289 -80.4314 228° Southwest 198 228 8,100  Level Atlanta Center
Tue 08:29:45 AM 36.7889 -80.4850 227° Southwest 198 228 8,100  Level Atlanta Center
Tue 08:30:45 AM 36.7464 -80.5311 221° Southwest 198 228 8,100 -50 Level Atlanta Center
Tue 08:31:45 AM 36.7103 -80.5792 227° Southwest 198 228 8,000 -50 Descending Atlanta Center
Tue 08:32:45 AM 36.6719 -80.6300 227° Southwest 198 228 8,000 50 Level Atlanta Center
Tue 08:33:45 AM 36.6339 -80.6783 226° Southwest 199 229 8,100 50 Climbing Atlanta Center
Tue 08:34:45 AM 36.5975 -80.7264 227° Southwest 199 229 8,100 -50 Level Atlanta Center
Tue 08:35:45 AM 36.5592 -80.7769 227° Southwest 199 229 8,000  Descending Atlanta Center
Tue 08:36:45 AM 36.5272 -80.8222 229° Southwest 199 229 8,100 50 Climbing Atlanta Center
Tue 08:37:45 AM 36.4886 -80.8703 225° Southwest 199 229 8,100  Level Atlanta Center
Tue 08:38:45 AM 36.4503 -80.9183 225° Southwest 194 223 8,100  Level Atlanta Center
Tue 08:39:45 AM 36.4119 -80.9689 227° Southwest 199 229 8,100  Level Atlanta Center
Tue 08:40:45 AM 36.3778 -81.0167 228° Southwest 194 223 8,100  Level Atlanta Center
Tue 08:41:45 AM 36.3392 -81.0644 225° Southwest 200 230 8,100  Level Atlanta Center
Tue 08:42:45 AM 36.3008 -81.1147 227° Southwest 200 230 8,100  Level Atlanta Center
Tue 08:43:45 AM 36.2583 -81.1653 224° Southwest 200 230 8,100  Level Atlanta Center
Tue 08:44:45 AM 36.2219 -81.2153 228° Southwest 200 230 8,100  Level Atlanta Center
Tue 08:45:45 AM 36.1853 -81.2631 226° Southwest 200 230 8,100  Level Atlanta Center
Tue 08:46:45 AM 36.1469 -81.3131 226° Southwest 200 230 8,100  Level Atlanta Center
Tue 08:47:45 AM 36.1083 -81.3608 225° Southwest 195 224 8,100 -50 Level Atlanta Center
Tue 08:48:45 AM 36.0697 -81.4108 226° Southwest 200 230 8,000  Descending Atlanta Center
Tue 08:49:45 AM 36.0333 -81.4583 227° Southwest 195 224 8,100 50 Climbing Atlanta Center
Tue 08:50:45 AM 35.9944 -81.5056 224° Southwest 195 224 8,100  Level Atlanta Center
Tue 08:51:45 AM 35.9581 -81.5531 227° Southwest 195 224 8,100  Level Atlanta Center
Tue 08:52:45 AM 35.9194 -81.6028 226° Southwest 195 224 8,100  Level Atlanta Center
Tue 08:53:45 AM 35.8828 -81.6500 226° Southwest 195 224 8,100  Level Atlanta Center
Tue 08:54:45 AM 35.8442 -81.6972 225° Southwest 195 224 8,100 -50 Level Atlanta Center
Tue 08:55:45 AM 35.8094 -81.7392 224° Southwest 200 230 8,000  Descending Atlanta Center
Tue 08:56:45 AM 35.7747 -81.7864 228° Southwest 195 224 8,100 50 Climbing Atlanta Center
Tue 08:57:45 AM 35.7361 -81.8336 225° Southwest 195 224 8,100  Level Atlanta Center
Tue 08:58:45 AM 35.6972 -81.8781 223° Southwest 195 224 8,100  Level Atlanta Center
Tue 08:59:45 AM 35.6603 -81.9250 226° Southwest 195 224 8,100  Level Atlanta Center
Tue 09:00:45 AM 35.6258 -81.9692 226° Southwest 195 224 8,100 -50 Level Atlanta Center
Tue 09:01:45 AM 35.5889 -82.0161 226° Southwest 195 224 8,000 -100 Descending Atlanta Center
Tue 09:02:45 AM 35.5500 -82.0656 226° Southwest 195 224 7,900 -50 Descending Atlanta Center
Tue 09:03:45 AM 35.5092 -82.1203 227° Southwest 210 242 7,900  Level Atlanta Center
Tue 09:04:45 AM 35.4725 -82.1644 224° Southwest 194 223 7,900  Level Atlanta Center
Tue 09:05:45 AM 35.4333 -82.2086 223° Southwest 205 236 7,900  Level Atlanta Center
Tue 09:06:45 AM 35.3964 -82.2553 226° Southwest 190 219 7,900  Level Atlanta Center
Tue 09:07:45 AM 35.3639 -82.2992 228° Southwest 190 219 7,900  Level Atlanta Center
Tue 09:08:45 AM 35.3269 -82.3433 224° Southwest 193 222 7,900  Level Atlanta Center
Tue 09:09:45 AM 35.2858 -82.3925 224° Southwest 188 216 7,900  Level Atlanta Center
Tue 09:10:45 AM 35.2531 -82.4339 226° Southwest 196 226 7,900  Level Atlanta Center
Tue 09:11:45 AM 35.2158 -82.4778 224° Southwest 194 223 7,900 -50 Level Atlanta Center
Tue 09:12:45 AM 35.1750 -82.5294 226° Southwest 187 215 7,800 -50 Descending Atlanta Center
Tue 09:13:45 AM 35.1419 -82.5656 222° Southwest 198 228 7,800 50 Level Atlanta Center
Tue 09:14:45 AM 35.1047 -82.6069 222° Southwest 198 228 7,900 50 Climbing Atlanta Center
Tue 09:15:45 AM 35.0678 -82.6506 224° Southwest 188 216 7,900  Level Atlanta Center
Tue 09:16:45 AM 35.0328 -82.6944 226° Southwest 182 209 7,900  Level Atlanta Center
Tue 09:17:45 AM 35.0000 -82.7381 227° Southwest 182 209 7,900  Level Atlanta Center
Tue 09:18:45 AM 34.9628 -82.7867 227° Southwest 182 209 7,900  Level Atlanta Center
Tue 09:19:45 AM 34.9278 -82.8253 222° Southwest 182 209 7,900 -50 Level Atlanta Center
Tue 09:20:45 AM 34.8886 -82.8689 222° Southwest 177 204 7,800 -50 Descending Atlanta Center
Tue 09:21:45 AM 34.8514 -82.9175 227° Southwest 177 204 7,800  Level Atlanta Center
Tue 09:22:45 AM 34.8183 -82.9608 227° Southwest 182 209 7,800  Level Atlanta Center
Tue 09:23:45 AM 34.7811 -83.0044 224° Southwest 182 209 7,800  Level Atlanta Center
Tue 09:24:45 AM 34.7442 -83.0478 224° Southwest 187 215 7,800  Level Atlanta Center
Tue 09:25:45 AM 34.7089 -83.0911 225° Southwest 187 215 7,800  Level Atlanta Center
Tue 09:26:45 AM 34.6717 -83.1372 226° Southwest 193 222 7,800  Level Atlanta Center
Tue 09:27:45 AM 34.6364 -83.1803 225° Southwest 193 222 7,800  Level Atlanta Center
Tue 09:28:45 AM 34.5972 -83.2289 226° Southwest 199 229 7,800  Level Atlanta Center
Tue 09:29:45 AM 34.5619 -83.2669 222° Southwest 193 222 7,800  Level Atlanta Center
Tue 09:30:45 AM 34.5225 -83.3153 225° Southwest 193 222 7,800  Level Atlanta Center
Tue 09:31:45 AM 34.4853 -83.3608 225° Southwest 199 229 7,800 -50 Level Atlanta Center
Tue 09:32:45 AM 34.4481 -83.4039 224° Southwest 199 229 7,700 -300 Descending Atlanta Center
Tue 09:33:45 AM 34.4086 -83.4497 224° Southwest 199 229 7,200 -500 Descending Atlanta Center
Tue 09:34:45 AM 34.3711 -83.5003 228° Southwest 192 221 6,700 -500 Descending Atlanta Center
Tue 09:35:45 AM 34.3339 -83.5483 227° Southwest 197 227 6,200 -350 Descending Atlanta Center
Tue 09:36:45 AM 34.2964 -83.5961 226° Southwest 197 227 6,000 -250 Descending Atlanta Center
Tue 09:37:45 AM 34.2528 -83.6367 218° Southwest 197 227 5,700 -400 Descending Atlanta Center
Tue 09:38:45 AM 34.2069 -83.6694 211° Southwest 197 227 5,200 -500 Descending Atlanta Center
Tue 09:39:45 AM 34.1611 -83.7025 211° Southwest 197 227 4,700 -600 Descending Atlanta Center
Tue 09:40:45 AM 34.1153 -83.7328 209° Southwest 197 227 4,000 -700 Descending Atlanta Center
Tue 09:41:45 AM 34.0694 -83.7681 213° Southwest 192 221 3,300 -513 Descending Atlanta Center
Tue 09:44:04 AM 34.0167 -83.8833 241° Southwest 143 165 2,300 -497 Descending Atlanta TRACON
Tue 09:44:58 AM 34.0000 -83.9167 239° Southwest 136 157 1,700 -667 Descending Atlanta TRACON
Tue 09:46:00 AM 33.9667 -83.9500 180° South  Level FlightAware Approximate
Tue 09:53:00 AM 33.9781 -83.9624 180° South  Level Estimated
Tue 09:54:00 AM 33.9781 -83.9624 180° South  Level Estimated

Login

Don't have an account? Register now (free) for customized features, flight alerts, and more!